createdAt,value
2023-02-06T00:02:03.988Z,77.76
2023-02-06T00:07:06.031Z,77.85
2023-02-06T00:12:07.006Z,78.27
2023-02-06T00:17:07.646Z,78.20
2023-02-06T00:22:10.360Z,78.16
2023-02-06T00:27:11.060Z,78.60
2023-02-06T00:32:11.715Z,78.83
2023-02-06T00:37:17.444Z,79.33
2023-02-06T00:42:18.091Z,79.24
2023-02-06T00:47:19.310Z,79.50
2023-02-06T00:52:21.312Z,79.87
2023-02-06T00:57:22.038Z,79.69
2023-02-06T01:02:22.719Z,79.79
2023-02-06T01:07:24.967Z,79.74
2023-02-06T01:12:25.628Z,79.50
2023-02-06T01:17:26.302Z,79.54
2023-02-06T01:22:29.695Z,79.42
2023-02-06T01:27:30.920Z,79.53
2023-02-06T01:32:32.078Z,78.79
2023-02-06T01:37:34.158Z,78.71
2023-02-06T01:42:35.646Z,78.79
2023-02-06T01:47:36.606Z,78.65
2023-02-06T01:52:38.664Z,78.66
2023-02-06T01:57:40.263Z,78.35
2023-02-06T02:02:48.332Z,78.81
2023-02-06T02:08:00.939Z,78.42
2023-02-06T02:13:01.728Z,78.41
2023-02-06T02:18:09.456Z,78.57
2023-02-06T02:23:25.567Z,79.00
2023-02-06T02:28:49.821Z,79.25
2023-02-06T02:34:09.602Z,79.51
2023-02-06T02:39:23.949Z,79.60
2023-02-06T02:44:32.214Z,79.54
2023-02-06T02:49:35.435Z,79.54
2023-02-06T02:54:38.275Z,79.45
2023-02-06T02:59:45.035Z,79.49
2023-02-06T03:04:49.678Z,79.23
2023-02-06T03:10:00.262Z,78.89
2023-02-06T03:15:05.113Z,78.91
2023-02-06T03:20:09.767Z,78.60
2023-02-06T03:25:19.515Z,78.77
2023-02-06T03:30:24.431Z,79.25
2023-02-06T03:35:30.589Z,79.53
2023-02-06T03:40:32.922Z,79.87
2023-02-06T03:45:38.184Z,79.66
2023-02-06T03:50:42.828Z,80.19
2023-02-06T03:55:47.797Z,79.86
2023-02-06T04:00:49.396Z,79.53
2023-02-06T04:05:50.109Z,80.08
2023-02-06T04:10:52.217Z,80.11
2023-02-06T04:15:52.921Z,80.50
2023-02-06T04:20:53.607Z,80.04
2023-02-06T04:25:55.614Z,80.30
2023-02-06T04:30:56.338Z,80.31
2023-02-06T04:35:57.098Z,79.85
2023-02-06T04:41:04.658Z,80.77
2023-02-06T04:46:05.680Z,79.97
2023-02-06T04:51:07.063Z,79.98
2023-02-06T04:56:10.922Z,80.19
2023-02-06T05:01:11.629Z,79.68
2023-02-06T05:06:12.484Z,79.32
2023-02-06T05:11:14.480Z,79.20
2023-02-06T05:16:17.346Z,78.85
2023-02-06T05:21:18.055Z,80.37
2023-02-06T05:26:20.575Z,78.63
2023-02-06T05:31:21.426Z,78.49
2023-02-06T05:36:23.541Z,78.01
2023-02-06T05:41:25.532Z,78.16
2023-02-06T05:46:26.332Z,77.54
2023-02-06T05:51:27.007Z,77.24
2023-02-06T05:56:29.026Z,77.26
2023-02-06T06:01:30.068Z,77.28
2023-02-06T06:06:30.770Z,76.85
2023-02-06T06:11:33.451Z,76.76
2023-02-06T06:16:34.475Z,77.30
2023-02-06T06:21:35.445Z,77.40
2023-02-06T06:26:37.480Z,76.71
2023-02-06T06:31:38.229Z,76.98
2023-02-06T06:36:38.894Z,77.20
2023-02-06T06:41:40.928Z,76.65
2023-02-06T06:46:41.610Z,77.38
2023-02-06T06:51:42.267Z,77.57
2023-02-06T06:56:44.235Z,76.89
2023-02-06T07:01:44.884Z,76.81
2023-02-06T07:06:45.576Z,76.55
2023-02-06T07:11:47.614Z,77.01
2023-02-06T07:16:48.363Z,76.70
2023-02-06T07:21:49.158Z,76.74
2023-02-06T07:26:51.253Z,76.72
2023-02-06T07:31:52.044Z,75.92
2023-02-06T07:36:52.753Z,75.55
2023-02-06T07:41:54.843Z,75.30
2023-02-06T07:46:57.053Z,75.34
2023-02-06T07:51:57.735Z,75.09
2023-02-06T07:56:59.745Z,74.50
2023-02-06T08:02:01.089Z,74.42
2023-02-06T08:07:02.132Z,74.18
2023-02-06T08:12:04.241Z,74.01
2023-02-06T08:17:05.088Z,73.55
2023-02-06T08:22:05.959Z,73.34
2023-02-06T08:27:08.081Z,73.53
2023-02-06T08:32:08.965Z,73.18
2023-02-06T08:37:09.616Z,72.93
2023-02-06T08:42:12.668Z,72.76
2023-02-06T08:47:13.539Z,72.29
2023-02-06T08:52:14.212Z,72.72
2023-02-06T08:57:16.207Z,72.63
2023-02-06T09:02:16.886Z,72.39
2023-02-06T09:07:17.552Z,72.54
2023-02-06T09:12:19.724Z,71.93
2023-02-06T09:17:20.522Z,71.87
2023-02-06T09:22:21.160Z,71.78
2023-02-06T09:27:23.152Z,71.40
2023-02-06T09:32:23.817Z,71.38
2023-02-06T09:37:24.521Z,72.04
2023-02-06T09:42:32.758Z,71.61
2023-02-06T09:47:36.377Z,72.65
2023-02-06T09:52:55.523Z,71.96
2023-02-06T09:58:07.189Z,72.54
2023-02-06T10:03:19.844Z,72.59
2023-02-06T10:08:26.291Z,72.19
2023-02-06T10:13:32.287Z,73.07
2023-02-06T10:18:37.319Z,72.75
2023-02-06T10:23:42.863Z,71.63
2023-02-06T10:28:48.032Z,71.15
2023-02-06T10:34:08.733Z,70.77
2023-02-06T10:39:34.996Z,70.42
2023-02-06T10:44:51.117Z,70.13
2023-02-06T10:50:00.509Z,69.71
2023-02-06T10:55:05.329Z,70.80
2023-02-06T11:00:14.069Z,70.70
2023-02-06T11:05:19.959Z,70.35
2023-02-06T11:10:22.066Z,71.67
2023-02-06T11:15:35.040Z,73.80
2023-02-06T11:20:39.596Z,73.64
2023-02-06T11:25:40.589Z,74.86
2023-02-06T11:30:54.511Z,75.20
2023-02-06T11:35:59.082Z,74.81
2023-02-06T11:41:01.888Z,74.80
2023-02-06T11:46:16.837Z,75.48
2023-02-06T11:51:17.727Z,75.38
2023-02-06T11:56:21.385Z,74.87
2023-02-06T12:01:23.727Z,73.82
2023-02-06T12:06:30.751Z,75.41
2023-02-06T12:11:36.202Z,75.71
2023-02-06T12:16:40.899Z,74.59
2023-02-06T12:21:46.201Z,75.69
2023-02-06T12:26:48.876Z,73.13
2023-02-06T12:31:57.860Z,71.37
2023-02-06T12:37:14.127Z,71.98
2023-02-06T12:42:37.402Z,72.84
2023-02-06T12:47:45.666Z,76.37
2023-02-06T12:52:50.431Z,73.98
2023-02-06T12:57:51.887Z,73.27
2023-02-06T13:03:06.016Z,73.58
2023-02-06T13:08:09.323Z,75.09
2023-02-06T13:13:27.395Z,72.96
2023-02-06T13:19:05.605Z,73.33
2023-02-06T13:24:17.584Z,71.88
2023-02-06T13:29:25.196Z,70.88
2023-02-06T13:34:27.288Z,69.76
2023-02-06T13:39:31.393Z,69.43
2023-02-06T13:44:34.858Z,69.67
2023-02-06T13:50:14.216Z,68.05
2023-02-06T13:55:25.167Z,64.32
2023-02-06T14:00:30.357Z,65.63
2023-02-06T14:05:41.305Z,63.11
2023-02-06T14:11:24.453Z,61.98
2023-02-06T14:16:39.698Z,62.77
2023-02-06T14:21:49.450Z,61.28
2023-02-06T14:27:02.353Z,61.30
2023-02-06T14:32:28.750Z,60.49
2023-02-06T14:37:53.934Z,59.41
2023-02-06T14:42:58.924Z,59.13
2023-02-06T14:48:01.789Z,58.88
2023-02-06T14:53:10.338Z,58.82
2023-02-06T14:58:20.521Z,58.21
2023-02-06T15:03:24.665Z,57.73
2023-02-06T15:08:25.377Z,59.11
2023-02-06T15:13:34.854Z,59.40
2023-02-06T15:18:36.506Z,57.52
2023-02-06T15:23:55.460Z,58.54
2023-02-06T15:29:01.150Z,58.24
2023-02-06T15:34:03.529Z,58.71
2023-02-06T15:39:07.693Z,57.63
2023-02-06T15:44:16.078Z,58.66
2023-02-06T15:49:19.960Z,59.85
2023-02-06T15:54:22.843Z,61.24
2023-02-06T15:59:26.484Z,62.06
2023-02-06T16:04:31.316Z,61.30
2023-02-06T16:09:33.495Z,61.49
2023-02-06T16:14:37.789Z,62.09
2023-02-06T16:19:47.672Z,71.98
2023-02-06T16:24:48.836Z,71.25
2023-02-06T16:29:53.304Z,71.54
2023-02-06T16:34:54.486Z,67.81
2023-02-06T16:39:55.619Z,71.08
2023-02-06T16:45:01.800Z,64.78
2023-02-06T16:50:03.717Z,63.82
2023-02-06T16:55:05.023Z,65.93
2023-02-06T17:00:13.402Z,67.13
2023-02-06T17:05:14.670Z,67.04
2023-02-06T17:10:18.068Z,67.64
2023-02-06T17:15:21.227Z,68.70
2023-02-06T17:20:30.156Z,69.15
2023-02-06T17:25:31.248Z,70.59
2023-02-06T17:30:33.644Z,70.57
2023-02-06T17:35:37.798Z,71.18
2023-02-06T17:40:40.998Z,70.09
2023-02-06T17:45:43.468Z,70.01
2023-02-06T17:50:45.037Z,70.37
2023-02-06T17:55:47.264Z,71.00
2023-02-06T18:00:50.411Z,72.17
2023-02-06T18:05:57.476Z,72.38
2023-02-06T18:10:58.806Z,72.98
2023-02-06T18:16:00.929Z,73.68
2023-02-06T18:21:01.936Z,74.20
2023-02-06T18:26:03.599Z,74.50
2023-02-06T18:31:06.909Z,73.65
2023-02-06T18:36:08.396Z,73.58
2023-02-06T18:41:30.397Z,74.37
2023-02-06T18:46:32.452Z,74.13
2023-02-06T18:51:34.747Z,73.71
2023-02-06T18:56:35.498Z,74.44
2023-02-06T19:01:37.801Z,75.20
2023-02-06T19:06:41.875Z,75.45
2023-02-06T19:11:44.165Z,75.54
2023-02-06T19:16:48.061Z,76.63
2023-02-06T19:21:49.018Z,76.99
2023-02-06T19:26:50.639Z,77.20
2023-02-06T19:31:52.742Z,76.18
2023-02-06T19:36:54.799Z,76.89
2023-02-06T19:41:55.482Z,76.80
2023-02-06T19:46:57.949Z,76.67
2023-02-06T19:51:58.634Z,76.12
2023-02-06T19:57:00.598Z,76.03
2023-02-06T20:02:03.494Z,76.69
2023-02-06T20:07:04.565Z,77.41
2023-02-06T20:12:05.458Z,77.94
2023-02-06T20:17:07.544Z,77.81
2023-02-06T20:22:08.284Z,76.75
2023-02-06T20:27:09.531Z,76.96
2023-02-06T20:32:12.093Z,77.42
2023-02-06T20:37:14.091Z,78.41
2023-02-06T20:42:15.433Z,78.86
2023-02-06T20:47:17.470Z,79.34
2023-02-06T20:52:19.139Z,79.75
2023-02-06T20:57:22.326Z,80.29
2023-02-06T21:02:24.494Z,80.61
2023-02-06T21:07:25.781Z,80.55
2023-02-06T21:12:26.591Z,80.65
2023-02-06T21:17:28.715Z,80.52
2023-02-06T21:22:29.376Z,80.84
2023-02-06T21:27:30.157Z,81.30
2023-02-06T21:32:32.239Z,81.62
2023-02-06T21:37:32.946Z,81.47
2023-02-06T21:42:33.661Z,80.95
2023-02-06T21:47:36.857Z,81.73
2023-02-06T21:52:38.140Z,81.81
2023-02-06T21:57:38.790Z,81.91
2023-02-06T22:02:41.145Z,81.91
2023-02-06T22:07:43.259Z,82.10
2023-02-06T22:12:43.934Z,82.30
2023-02-06T22:17:46.013Z,82.07
2023-02-06T22:22:46.685Z,82.04
2023-02-06T22:27:47.506Z,82.32
2023-02-06T22:32:49.533Z,82.46
2023-02-06T22:37:50.257Z,82.25
2023-02-06T22:42:50.929Z,81.94
2023-02-06T22:47:52.951Z,82.38
2023-02-06T22:53:11.474Z,82.27
2023-02-06T22:58:12.859Z,82.68
2023-02-06T23:03:14.881Z,82.81
2023-02-06T23:08:15.903Z,82.83
2023-02-06T23:13:16.567Z,83.47
2023-02-06T23:18:18.664Z,83.06
2023-02-06T23:23:19.310Z,83.36
2023-02-06T23:28:20.237Z,83.19
2023-02-06T23:33:22.930Z,83.43
2023-02-06T23:38:23.612Z,83.30
2023-02-06T23:43:24.254Z,83.89
2023-02-06T23:48:26.273Z,83.45
2023-02-06T23:53:27.171Z,83.93
2023-02-06T23:58:27.938Z,83.73
